createdAt,value
2023-02-12T00:03:53.416Z,99956.22
2023-02-12T00:08:57.690Z,99945.50
2023-02-12T00:14:02.153Z,99953.19
2023-02-12T00:19:04.242Z,99959.75
2023-02-12T00:24:06.494Z,99961.63
2023-02-12T00:29:10.032Z,99964.44
2023-02-12T00:34:12.628Z,99965.75
2023-02-12T00:39:16.303Z,99968.56
2023-02-12T00:44:18.430Z,99973.88
2023-02-12T00:49:20.458Z,99977.03
2023-02-12T00:54:22.564Z,99978.75
2023-02-12T00:59:26.359Z,99984.34
2023-02-12T01:04:28.570Z,99977.19
2023-02-12T01:09:30.665Z,99980.31
2023-02-12T01:14:33.177Z,99977.59
2023-02-12T01:19:35.237Z,99972.34
2023-02-12T01:24:37.370Z,99978.78
2023-02-12T01:29:39.910Z,99981.16
2023-02-12T01:34:42.334Z,99972.81
2023-02-12T01:39:44.724Z,99969.13
2023-02-12T01:45:14.274Z,99976.53
2023-02-12T01:50:21.205Z,99964.16
2023-02-12T01:55:24.797Z,99964.94
2023-02-12T02:00:27.051Z,99967.78
2023-02-12T02:05:38.126Z,99957.75
2023-02-12T02:10:40.626Z,99966.28
2023-02-12T02:15:50.057Z,99953.13
2023-02-12T02:21:23.106Z,99954.97
2023-02-12T02:27:01.956Z,99940.94
2023-02-12T02:32:27.354Z,99938.84
2023-02-12T02:37:40.702Z,99943.53
2023-02-12T02:42:49.280Z,99935.88
2023-02-12T02:48:17.234Z,99937.41
2023-02-12T02:53:28.005Z,99943.22
2023-02-12T02:58:41.881Z,99942.00
2023-02-12T03:04:08.949Z,99937.59
2023-02-12T03:09:38.070Z,99938.38
2023-02-12T03:14:49.060Z,99948.34
2023-02-12T03:20:00.321Z,99941.53
2023-02-12T03:25:15.141Z,99948.41
2023-02-12T03:30:17.498Z,99953.44
2023-02-12T03:35:34.480Z,99949.66
2023-02-12T03:40:43.224Z,99954.75
2023-02-12T03:45:50.410Z,99950.03
2023-02-12T03:51:10.895Z,99946.50
2023-02-12T03:56:25.434Z,99946.16
2023-02-12T04:01:28.857Z,99957.41
2023-02-12T04:06:30.931Z,99960.03
2023-02-12T04:12:14.680Z,99958.16
2023-02-12T04:17:48.387Z,99963.19
2023-02-12T04:23:34.782Z,99965.00
2023-02-12T04:29:04.219Z,99967.88
2023-02-12T04:34:24.850Z,99972.03
2023-02-12T04:39:32.853Z,99979.91
2023-02-12T04:44:44.015Z,99980.22
2023-02-12T04:49:46.100Z,99982.72
2023-02-12T04:54:48.137Z,99990.84
2023-02-12T04:59:50.206Z,99986.53
2023-02-12T05:04:52.472Z,99982.00
2023-02-12T05:09:54.966Z,99986.59
2023-02-12T05:14:58.414Z,99980.28
2023-02-12T05:20:00.779Z,99969.66
2023-02-12T05:25:03.353Z,99974.88
2023-02-12T05:30:06.364Z,99972.16
2023-02-12T05:35:08.979Z,99983.38
2023-02-12T05:40:11.835Z,99975.69
2023-02-12T05:45:14.321Z,99979.00
2023-02-12T05:50:16.758Z,99982.34
2023-02-12T05:55:18.807Z,99980.59
2023-02-12T06:00:21.559Z,99985.66
2023-02-12T06:05:23.623Z,99987.13
2023-02-12T06:10:25.816Z,99978.84
2023-02-12T06:15:27.850Z,99984.25
2023-02-12T06:20:30.313Z,99982.44
2023-02-12T06:25:32.372Z,99991.56
2023-02-12T06:30:35.350Z,99980.34
2023-02-12T06:35:38.068Z,99989.69
2023-02-12T06:40:40.233Z,99992.28
2023-02-12T06:45:42.490Z,100003.44
2023-02-12T06:50:44.819Z,100007.44
2023-02-12T06:55:46.935Z,100011.81
2023-02-12T07:00:48.995Z,100013.84
2023-02-12T07:05:50.990Z,100022.97
2023-02-12T07:10:52.983Z,100017.28
2023-02-12T07:15:55.484Z,100019.72
2023-02-12T07:20:58.032Z,100016.91
2023-02-12T07:26:12.080Z,100018.06
2023-02-12T07:31:18.748Z,100024.63
2023-02-12T07:36:21.611Z,100020.97
2023-02-12T07:41:30.832Z,100024.63
2023-02-12T07:46:43.773Z,100032.06
2023-02-12T07:51:48.139Z,100019.88
2023-02-12T07:56:51.006Z,100025.75
2023-02-12T08:01:54.168Z,100019.13
2023-02-12T08:06:57.163Z,100027.31
2023-02-12T08:11:59.678Z,100019.38
2023-02-12T08:17:01.988Z,100026.22
2023-02-12T08:22:04.645Z,100017.13
2023-02-12T08:27:06.829Z,100015.13
2023-02-12T08:32:14.146Z,100008.69
2023-02-12T08:37:19.237Z,100015.84
2023-02-12T08:42:21.268Z,100014.41
2023-02-12T08:47:23.266Z,100018.78
2023-02-12T08:52:25.409Z,100026.63
2023-02-12T08:57:27.513Z,100024.41
2023-02-12T09:02:29.569Z,100025.91
2023-02-12T09:07:31.668Z,100030.81
2023-02-12T09:12:33.647Z,100027.44
2023-02-12T09:17:35.983Z,100024.78
2023-02-12T09:22:38.822Z,100025.50
2023-02-12T09:27:41.007Z,100019.03
2023-02-12T09:32:43.407Z,100020.50
2023-02-12T09:37:45.776Z,100032.84
2023-02-12T09:43:06.554Z,100033.88
2023-02-12T09:48:32.988Z,100024.84
2023-02-12T09:53:43.170Z,100023.50
2023-02-12T09:58:54.857Z,100024.97
2023-02-12T10:03:57.165Z,100024.06
2023-02-12T10:09:24.470Z,100019.97
2023-02-12T10:14:42.682Z,100024.69
2023-02-12T10:20:01.329Z,100021.50
2023-02-12T10:25:29.772Z,100030.25
2023-02-12T10:30:48.348Z,100023.41
2023-02-12T10:35:58.368Z,100019.59
2023-02-12T10:41:02.079Z,100012.75
2023-02-12T10:46:04.347Z,100008.28
2023-02-12T10:51:09.400Z,100011.19
2023-02-12T10:56:24.907Z,99997.59
2023-02-12T11:01:37.184Z,99999.25
2023-02-12T11:06:40.262Z,99998.47
2023-02-12T11:11:42.649Z,99994.59
2023-02-12T11:16:57.598Z,99997.00
2023-02-12T11:22:19.461Z,99993.13
2023-02-12T11:27:28.890Z,99990.41
2023-02-12T11:32:30.973Z,99984.19
2023-02-12T11:37:37.259Z,99986.97
2023-02-12T11:42:41.517Z,99982.84
2023-02-12T11:47:46.218Z,99988.78
2023-02-12T11:52:53.767Z,99974.47
2023-02-12T11:58:15.197Z,99972.66
2023-02-12T12:03:34.408Z,99974.22
2023-02-12T12:08:45.307Z,99972.97
2023-02-12T12:14:01.694Z,99972.50
2023-02-12T12:19:34.043Z,99971.66
2023-02-12T12:24:56.019Z,99969.53
2023-02-12T12:30:06.903Z,99960.19
2023-02-12T12:35:15.042Z,99961.13
2023-02-12T12:40:35.229Z,99960.00
2023-02-12T12:45:58.946Z,99960.03
2023-02-12T12:51:38.080Z,99958.13
2023-02-12T12:57:28.597Z,99932.03
2023-02-12T13:02:33.882Z,99936.28
2023-02-12T13:08:01.162Z,99929.78
2023-02-12T13:13:38.011Z,99917.75
2023-02-12T13:19:04.971Z,99911.38
2023-02-12T13:24:32.399Z,99908.59
2023-02-12T13:29:52.856Z,99905.47
2023-02-12T13:34:57.251Z,99902.94
2023-02-12T13:40:03.140Z,99900.88
2023-02-12T13:45:30.937Z,99894.63
2023-02-12T13:50:36.582Z,99892.59
2023-02-12T13:55:51.827Z,99883.28
2023-02-12T14:00:54.238Z,99890.28
2023-02-12T14:06:16.980Z,99878.94
2023-02-12T14:11:25.890Z,99881.66
2023-02-12T14:16:31.289Z,99871.50
2023-02-12T14:21:36.750Z,99876.16
2023-02-12T14:26:39.853Z,99869.88
2023-02-12T14:31:42.879Z,99862.81
2023-02-12T14:36:49.455Z,99855.34
2023-02-12T14:42:08.443Z,99851.09
2023-02-12T14:47:29.645Z,99858.78
2023-02-12T14:52:39.840Z,99851.00
2023-02-12T14:57:43.141Z,99847.81
2023-02-12T15:02:54.154Z,99850.16
2023-02-12T15:08:05.467Z,99864.91
2023-02-12T15:13:22.740Z,99847.75
2023-02-12T15:18:30.877Z,99855.53
2023-02-12T15:23:40.100Z,99857.88
2023-02-12T15:28:46.198Z,99851.56
2023-02-12T15:33:52.028Z,99847.66
2023-02-12T15:39:01.909Z,99843.75
2023-02-12T15:44:29.075Z,99844.91
2023-02-12T15:49:43.287Z,99833.59
2023-02-12T15:54:48.614Z,99835.00
2023-02-12T16:00:01.825Z,99832.25
2023-02-12T16:05:06.182Z,99827.22
2023-02-12T16:10:14.283Z,99832.66
2023-02-12T16:15:34.972Z,99831.81
2023-02-12T16:20:37.313Z,99838.00
2023-02-12T16:25:40.431Z,99845.66
2023-02-12T16:30:44.775Z,99842.13
2023-02-12T16:36:03.235Z,99846.41
2023-02-12T16:41:20.559Z,99844.78
2023-02-12T16:46:22.679Z,99853.25
2023-02-12T16:51:33.055Z,99859.38
2023-02-12T16:56:42.108Z,99861.53
2023-02-12T17:01:59.199Z,99865.16
2023-02-12T17:07:01.552Z,99884.31
2023-02-12T17:12:03.948Z,99881.72
2023-02-12T17:17:06.107Z,99878.81
2023-02-12T17:22:19.779Z,99883.66
2023-02-12T17:27:22.033Z,99886.75
2023-02-12T17:32:25.473Z,99894.16
2023-02-12T17:37:27.528Z,99888.88
2023-02-12T17:42:29.533Z,99893.13
2023-02-12T17:47:31.714Z,99896.56
2023-02-12T17:52:33.756Z,99896.59
2023-02-12T17:57:35.807Z,99892.16
2023-02-12T18:02:38.283Z,99892.59
2023-02-12T18:07:40.511Z,99895.66
2023-02-12T18:12:42.601Z,99899.66
2023-02-12T18:17:45.012Z,99907.47
2023-02-12T18:22:47.544Z,99905.66
2023-02-12T18:27:49.683Z,99910.06
2023-02-12T18:32:54.488Z,99903.91
2023-02-12T18:37:56.576Z,99904.34
2023-02-12T18:42:58.574Z,99905.00
2023-02-12T18:48:00.661Z,99902.00
2023-02-12T18:53:02.698Z,99902.13
2023-02-12T18:58:04.852Z,99906.13
2023-02-12T19:03:07.094Z,99912.44
2023-02-12T19:08:09.227Z,99903.00
2023-02-12T19:13:11.380Z,99909.06
2023-02-12T19:18:13.622Z,99913.84
2023-02-12T19:23:16.128Z,99909.69
2023-02-12T19:28:18.512Z,99914.19
2023-02-12T19:33:20.626Z,99925.56
2023-02-12T19:38:22.896Z,99917.84
2023-02-12T19:43:24.997Z,99923.06
2023-02-12T19:48:27.212Z,99917.00
2023-02-12T19:53:29.399Z,99931.19
2023-02-12T19:58:31.707Z,99921.28
2023-02-12T20:03:33.802Z,99926.25
2023-02-12T20:08:38.557Z,99931.66
2023-02-12T20:13:41.636Z,99928.03
2023-02-12T20:18:49.955Z,99922.94
2023-02-12T20:23:52.024Z,99933.66
2023-02-12T20:28:54.171Z,99933.66
2023-02-12T20:34:17.507Z,99942.94
2023-02-12T20:39:21.809Z,99944.63
2023-02-12T20:44:24.059Z,99939.75
2023-02-12T20:49:26.659Z,99935.34
2023-02-12T20:54:28.928Z,99942.00
2023-02-12T20:59:30.975Z,99935.69
2023-02-12T21:04:33.128Z,99945.28
2023-02-12T21:09:35.274Z,99939.53
2023-02-12T21:14:37.580Z,99940.16
2023-02-12T21:19:39.693Z,99937.53
2023-02-12T21:24:41.656Z,99928.88
2023-02-12T21:29:43.759Z,99931.59
2023-02-12T21:34:48.613Z,99937.75
2023-02-12T21:39:50.929Z,99927.69
2023-02-12T21:44:53.152Z,99926.47
2023-02-12T21:49:55.260Z,99929.66
2023-02-12T21:54:57.347Z,99930.88
2023-02-12T21:59:59.587Z,99923.38
2023-02-12T22:05:01.583Z,99921.94
2023-02-12T22:10:04.045Z,99929.91
2023-02-12T22:15:06.611Z,99928.56
2023-02-12T22:20:09.804Z,99921.59
2023-02-12T22:25:11.858Z,99926.50
2023-02-12T22:30:14.465Z,99921.16
2023-02-12T22:35:17.263Z,99921.84
2023-02-12T22:40:19.673Z,99925.03
2023-02-12T22:45:21.651Z,99925.69
2023-02-12T22:50:23.890Z,99932.50
2023-02-12T22:55:25.918Z,99932.03
2023-02-12T23:00:27.944Z,99933.13
2023-02-12T23:05:31.628Z,99929.50
2023-02-12T23:10:33.929Z,99939.38
2023-02-12T23:15:35.890Z,99932.66
2023-02-12T23:20:37.927Z,99942.56
2023-02-12T23:25:39.972Z,99934.47
2023-02-12T23:30:42.080Z,99936.59
2023-02-12T23:35:48.516Z,99930.97
2023-02-12T23:40:50.541Z,99926.72
2023-02-12T23:45:52.568Z,99922.66
2023-02-12T23:50:54.690Z,99930.16
2023-02-12T23:55:56.752Z,99931.44
